sensor_id;sensor_type;location;lat;lon;timestamp;pressure;altitude;pressure_sealevel;temperature;humidity
9855;BME280;4966;48.112;9.282;2022-12-18T00:00:41;95594.25;;;-4.55;79.86
9855;BME280;4966;48.112;9.282;2022-12-18T00:03:07;95594.31;;;-4.61;80.66
9855;BME280;4966;48.112;9.282;2022-12-18T00:05:32;95592.19;;;-4.71;80.54
9855;BME280;4966;48.112;9.282;2022-12-18T00:07:58;95581.13;;;-4.68;80.71
9855;BME280;4966;48.112;9.282;2022-12-18T00:10:23;95582.16;;;-4.69;81.10
9855;BME280;4966;48.112;9.282;2022-12-18T00:12:48;95585.91;;;-4.58;81.08
9855;BME280;4966;48.112;9.282;2022-12-18T00:15:14;95587.03;;;-4.66;80.97
9855;BME280;4966;48.112;9.282;2022-12-18T00:17:39;95580.47;;;-4.63;80.45
9855;BME280;4966;48.112;9.282;2022-12-18T00:20:05;95577.81;;;-4.63;81.35
9855;BME280;4966;48.112;9.282;2022-12-18T00:22:30;95586.13;;;-4.78;81.27
9855;BME280;4966;48.112;9.282;2022-12-18T00:24:55;95579.59;;;-4.57;81.35
9855;BME280;4966;48.112;9.282;2022-12-18T00:27:21;95586.81;;;-4.64;81.15
9855;BME280;4966;48.112;9.282;2022-12-18T00:29:48;95588.13;;;-4.55;80.90
9855;BME280;4966;48.112;9.282;2022-12-18T00:32:13;95602.97;;;-4.47;80.64
9855;BME280;4966;48.112;9.282;2022-12-18T00:34:39;95589.53;;;-4.71;81.03
9855;BME280;4966;48.112;9.282;2022-12-18T00:37:04;95593.88;;;-4.58;81.13
9855;BME280;4966;48.112;9.282;2022-12-18T00:39:29;95593.75;;;-4.45;81.16
9855;BME280;4966;48.112;9.282;2022-12-18T00:41:55;95588.47;;;-4.70;81.98
9855;BME280;4966;48.112;9.282;2022-12-18T00:44:38;95593.00;;;-4.71;81.49
9855;BME280;4966;48.112;9.282;2022-12-18T00:47:04;95587.03;;;-4.47;81.24
9855;BME280;4966;48.112;9.282;2022-12-18T00:49:29;95586.19;;;-4.48;81.37
9855;BME280;4966;48.112;9.282;2022-12-18T00:51:54;95589.16;;;-4.56;81.40
9855;BME280;4966;48.112;9.282;2022-12-18T00:54:20;95599.88;;;-4.44;80.58
9855;BME280;4966;48.112;9.282;2022-12-18T00:56:45;95603.78;;;-4.47;81.07
9855;BME280;4966;48.112;9.282;2022-12-18T00:59:11;95614.28;;;-4.77;82.18
9855;BME280;4966;48.112;9.282;2022-12-18T01:01:36;95611.19;;;-4.74;82.69
9855;BME280;4966;48.112;9.282;2022-12-18T01:04:02;95626.28;;;-4.50;81.50
9855;BME280;4966;48.112;9.282;2022-12-18T01:06:28;95602.72;;;-4.46;80.49
9855;BME280;4966;48.112;9.282;2022-12-18T01:08:54;95607.16;;;-4.58;81.22
9855;BME280;4966;48.112;9.282;2022-12-18T01:11:20;95606.06;;;-4.69;82.02
9855;BME280;4966;48.112;9.282;2022-12-18T01:13:46;95604.09;;;-4.80;83.15
9855;BME280;4966;48.112;9.282;2022-12-18T01:16:16;95596.16;;;-4.43;81.93
9855;BME280;4966;48.112;9.282;2022-12-18T01:18:41;95611.50;;;-4.64;82.95
9855;BME280;4966;48.112;9.282;2022-12-18T01:21:09;95607.09;;;-4.52;82.84
9855;BME280;4966;48.112;9.282;2022-12-18T01:23:35;95604.97;;;-4.43;81.86
9855;BME280;4966;48.112;9.282;2022-12-18T01:26:08;95608.03;;;-4.46;82.02
9855;BME280;4966;48.112;9.282;2022-12-18T01:28:33;95605.09;;;-4.56;82.61
9855;BME280;4966;48.112;9.282;2022-12-18T01:33:40;95617.19;;;-4.42;81.81
9855;BME280;4966;48.112;9.282;2022-12-18T01:36:06;95622.44;;;-4.35;81.70
9855;BME280;4966;48.112;9.282;2022-12-18T01:38:31;95630.69;;;-4.43;81.38
9855;BME280;4966;48.112;9.282;2022-12-18T01:40:58;95633.88;;;-4.35;81.56
9855;BME280;4966;48.112;9.282;2022-12-18T01:43:51;95641.69;;;-4.40;81.96
9855;BME280;4966;48.112;9.282;2022-12-18T01:46:18;95628.94;;;-4.75;82.87
9855;BME280;4966;48.112;9.282;2022-12-18T01:48:50;95633.34;;;-4.62;83.43
9855;BME280;4966;48.112;9.282;2022-12-18T01:51:16;95628.34;;;-4.33;82.28
9855;BME280;4966;48.112;9.282;2022-12-18T01:53:43;95624.88;;;-4.34;82.61
9855;BME280;4966;48.112;9.282;2022-12-18T01:56:13;95626.50;;;-4.33;82.51
9855;BME280;4966;48.112;9.282;2022-12-18T01:58:45;95627.53;;;-4.15;82.13
9855;BME280;4966;48.112;9.282;2022-12-18T02:01:13;95636.69;;;-4.11;81.20
9855;BME280;4966;48.112;9.282;2022-12-18T02:03:41;95631.78;;;-4.14;81.42
9855;BME280;4966;48.112;9.282;2022-12-18T02:09:35;95630.03;;;-4.39;82.90
9855;BME280;4966;48.112;9.282;2022-12-18T02:11:59;95632.31;;;-4.24;82.54
9855;BME280;4966;48.112;9.282;2022-12-18T02:14:41;95627.81;;;-4.42;82.67
9855;BME280;4966;48.112;9.282;2022-12-18T02:17:25;95624.94;;;-4.22;82.70
9855;BME280;4966;48.112;9.282;2022-12-18T02:25:53;95621.63;;;-4.17;81.90
9855;BME280;4966;48.112;9.282;2022-12-18T02:28:29;95626.00;;;-4.04;81.83
9855;BME280;4966;48.112;9.282;2022-12-18T02:30:58;95639.19;;;-3.98;81.34
9855;BME280;4966;48.112;9.282;2022-12-18T02:33:27;95642.00;;;-4.11;81.33
9855;BME280;4966;48.112;9.282;2022-12-18T02:35:55;95638.81;;;-4.38;82.48
9855;BME280;4966;48.112;9.282;2022-12-18T02:38:23;95640.38;;;-4.31;82.00
9855;BME280;4966;48.112;9.282;2022-12-18T02:40:49;95633.13;;;-4.05;81.54
9855;BME280;4966;48.112;9.282;2022-12-18T02:43:16;95622.59;;;-4.12;82.00
9855;BME280;4966;48.112;9.282;2022-12-18T02:45:50;95631.78;;;-4.14;82.27
9855;BME280;4966;48.112;9.282;2022-12-18T02:48:18;95625.81;;;-3.91;81.21
9855;BME280;4966;48.112;9.282;2022-12-18T02:53:28;95636.16;;;-4.38;82.44
9855;BME280;4966;48.112;9.282;2022-12-18T02:58:37;95631.38;;;-4.11;82.26
9855;BME280;4966;48.112;9.282;2022-12-18T03:01:25;95630.25;;;-4.03;81.80
9855;BME280;4966;48.112;9.282;2022-12-18T03:04:00;95639.63;;;-4.19;82.87
9855;BME280;4966;48.112;9.282;2022-12-18T03:06:34;95632.63;;;-4.14;82.28
9855;BME280;4966;48.112;9.282;2022-12-18T03:09:07;95643.47;;;-3.97;81.82
9855;BME280;4966;48.112;9.282;2022-12-18T03:11:34;95636.81;;;-4.06;81.65
9855;BME280;4966;48.112;9.282;2022-12-18T03:14:21;95631.19;;;-3.98;81.75
9855;BME280;4966;48.112;9.282;2022-12-18T03:16:54;95633.31;;;-3.88;81.56
9855;BME280;4966;48.112;9.282;2022-12-18T03:19:22;95630.41;;;-3.98;81.51
9855;BME280;4966;48.112;9.282;2022-12-18T03:21:56;95634.84;;;-4.11;81.25
9855;BME280;4966;48.112;9.282;2022-12-18T03:24:23;95630.91;;;-4.27;81.81
9855;BME280;4966;48.112;9.282;2022-12-18T03:26:53;95632.03;;;-4.16;81.84
9855;BME280;4966;48.112;9.282;2022-12-18T03:29:26;95634.03;;;-4.30;81.97
9855;BME280;4966;48.112;9.282;2022-12-18T03:32:01;95644.06;;;-4.13;81.87
9855;BME280;4966;48.112;9.282;2022-12-18T03:34:33;95641.25;;;-4.18;81.65
9855;BME280;4966;48.112;9.282;2022-12-18T03:36:59;95653.66;;;-4.12;81.77
9855;BME280;4966;48.112;9.282;2022-12-18T03:39:26;95655.66;;;-4.08;81.68
9855;BME280;4966;48.112;9.282;2022-12-18T03:41:57;95655.16;;;-4.16;82.18
9855;BME280;4966;48.112;9.282;2022-12-18T03:44:49;95652.59;;;-3.93;81.68
9855;BME280;4966;48.112;9.282;2022-12-18T03:47:27;95651.19;;;-3.95;81.88
9855;BME280;4966;48.112;9.282;2022-12-18T03:49:59;95652.97;;;-4.08;81.94
9855;BME280;4966;48.112;9.282;2022-12-18T03:55:01;95649.84;;;-4.16;81.99
9855;BME280;4966;48.112;9.282;2022-12-18T03:57:29;95645.16;;;-4.02;81.58
9855;BME280;4966;48.112;9.282;2022-12-18T04:00:00;95640.94;;;-3.92;81.87
9855;BME280;4966;48.112;9.282;2022-12-18T04:02:26;95636.75;;;-3.99;82.25
9855;BME280;4966;48.112;9.282;2022-12-18T04:04:57;95642.50;;;-4.02;81.60
9855;BME280;4966;48.112;9.282;2022-12-18T04:07:24;95644.06;;;-3.95;80.41
9855;BME280;4966;48.112;9.282;2022-12-18T04:09:52;95635.84;;;-3.93;80.57
9855;BME280;4966;48.112;9.282;2022-12-18T04:12:18;95645.00;;;-3.89;80.70
9855;BME280;4966;48.112;9.282;2022-12-18T04:14:44;95647.00;;;-4.03;81.33
9855;BME280;4966;48.112;9.282;2022-12-18T04:17:10;95644.00;;;-4.07;81.77
9855;BME280;4966;48.112;9.282;2022-12-18T04:19:35;95653.72;;;-4.00;81.89
9855;BME280;4966;48.112;9.282;2022-12-18T04:22:00;95651.50;;;-3.85;80.97
9855;BME280;4966;48.112;9.282;2022-12-18T04:24:26;95649.88;;;-3.86;80.97
9855;BME280;4966;48.112;9.282;2022-12-18T04:26:51;95657.19;;;-3.81;80.92
9855;BME280;4966;48.112;9.282;2022-12-18T04:29:16;95654.44;;;-3.75;80.89
9855;BME280;4966;48.112;9.282;2022-12-18T04:31:42;95650.19;;;-3.94;80.97
9855;BME280;4966;48.112;9.282;2022-12-18T04:34:07;95657.34;;;-4.13;81.53
9855;BME280;4966;48.112;9.282;2022-12-18T04:36:32;95659.94;;;-4.07;80.43
9855;BME280;4966;48.112;9.282;2022-12-18T04:38:58;95662.81;;;-3.90;80.73
9855;BME280;4966;48.112;9.282;2022-12-18T04:41:23;95669.97;;;-4.09;81.37
9855;BME280;4966;48.112;9.282;2022-12-18T04:43:48;95682.06;;;-3.94;80.97
9855;BME280;4966;48.112;9.282;2022-12-18T04:46:14;95671.22;;;-3.93;81.05
9855;BME280;4966;48.112;9.282;2022-12-18T04:48:39;95684.56;;;-4.36;82.22
9855;BME280;4966;48.112;9.282;2022-12-18T04:51:05;95678.88;;;-4.21;82.25
9855;BME280;4966;48.112;9.282;2022-12-18T04:53:31;95675.97;;;-3.95;81.53
9855;BME280;4966;48.112;9.282;2022-12-18T04:56:11;95680.09;;;-3.99;81.15
9855;BME280;4966;48.112;9.282;2022-12-18T04:58:38;95687.53;;;-3.89;80.75
9855;BME280;4966;48.112;9.282;2022-12-18T05:01:04;95688.41;;;-3.77;80.22
9855;BME280;4966;48.112;9.282;2022-12-18T05:03:30;95677.56;;;-3.75;80.31
9855;BME280;4966;48.112;9.282;2022-12-18T05:05:55;95691.72;;;-4.00;81.31
9855;BME280;4966;48.112;9.282;2022-12-18T05:08:21;95687.59;;;-3.77;80.47
9855;BME280;4966;48.112;9.282;2022-12-18T05:10:46;95678.59;;;-3.76;80.55
9855;BME280;4966;48.112;9.282;2022-12-18T05:13:11;95678.97;;;-3.91;80.97
9855;BME280;4966;48.112;9.282;2022-12-18T05:15:37;95688.47;;;-3.83;81.14
9855;BME280;4966;48.112;9.282;2022-12-18T05:18:03;95684.28;;;-3.91;81.00
9855;BME280;4966;48.112;9.282;2022-12-18T05:20:29;95698.16;;;-3.89;80.67
9855;BME280;4966;48.112;9.282;2022-12-18T05:22:54;95691.25;;;-3.90;80.87
9855;BME280;4966;48.112;9.282;2022-12-18T05:25:21;95695.56;;;-4.14;81.37
9855;BME280;4966;48.112;9.282;2022-12-18T05:27:46;95693.44;;;-4.06;81.72
9855;BME280;4966;48.112;9.282;2022-12-18T05:30:13;95691.50;;;-4.17;82.33
9855;BME280;4966;48.112;9.282;2022-12-18T05:32:39;95691.72;;;-4.00;81.76
9855;BME280;4966;48.112;9.282;2022-12-18T05:35:06;95694.56;;;-3.95;81.45
9855;BME280;4966;48.112;9.282;2022-12-18T05:37:32;95690.34;;;-4.02;81.47
9855;BME280;4966;48.112;9.282;2022-12-18T05:39:57;95705.72;;;-4.04;81.88
9855;BME280;4966;48.112;9.282;2022-12-18T05:42:23;95696.38;;;-3.95;81.43
9855;BME280;4966;48.112;9.282;2022-12-18T05:44:48;95696.47;;;-4.02;82.31
9855;BME280;4966;48.112;9.282;2022-12-18T05:47:13;95701.56;;;-4.00;82.20
9855;BME280;4966;48.112;9.282;2022-12-18T05:49:39;95689.31;;;-3.83;81.87
9855;BME280;4966;48.112;9.282;2022-12-18T05:52:04;95683.28;;;-3.90;81.59
9855;BME280;4966;48.112;9.282;2022-12-18T05:54:29;95695.13;;;-3.93;81.61
9855;BME280;4966;48.112;9.282;2022-12-18T05:56:56;95682.75;;;-3.80;81.42
9855;BME280;4966;48.112;9.282;2022-12-18T05:59:21;95703.41;;;-3.82;81.34
9855;BME280;4966;48.112;9.282;2022-12-18T06:01:47;95707.03;;;-3.95;81.86
9855;BME280;4966;48.112;9.282;2022-12-18T06:04:12;95704.22;;;-3.82;81.49
9855;BME280;4966;48.112;9.282;2022-12-18T06:06:38;95702.59;;;-4.01;82.37
9855;BME280;4966;48.112;9.282;2022-12-18T06:09:03;95709.19;;;-4.04;82.72
9855;BME280;4966;48.112;9.282;2022-12-18T06:11:34;95711.66;;;-3.91;82.44
9855;BME280;4966;48.112;9.282;2022-12-18T06:14:00;95709.34;;;-3.80;81.71
9855;BME280;4966;48.112;9.282;2022-12-18T06:16:27;95713.50;;;-4.10;81.88
9855;BME280;4966;48.112;9.282;2022-12-18T06:18:55;95712.56;;;-3.97;82.54
9855;BME280;4966;48.112;9.282;2022-12-18T06:21:20;95715.22;;;-4.15;82.83
9855;BME280;4966;48.112;9.282;2022-12-18T06:23:46;95713.16;;;-4.57;85.17
9855;BME280;4966;48.112;9.282;2022-12-18T06:26:12;95719.94;;;-4.17;83.57
9855;BME280;4966;48.112;9.282;2022-12-18T06:28:38;95711.31;;;-3.94;82.89
9855;BME280;4966;48.112;9.282;2022-12-18T06:31:04;95719.00;;;-4.04;83.19
9855;BME280;4966;48.112;9.282;2022-12-18T06:33:30;95720.22;;;-4.07;83.35
9855;BME280;4966;48.112;9.282;2022-12-18T06:36:00;95726.06;;;-3.98;83.02
9855;BME280;4966;48.112;9.282;2022-12-18T06:38:26;95723.28;;;-4.03;83.00
9855;BME280;4966;48.112;9.282;2022-12-18T06:40:52;95723.88;;;-3.83;82.63
9855;BME280;4966;48.112;9.282;2022-12-18T06:43:17;95730.34;;;-3.79;82.31
9855;BME280;4966;48.112;9.282;2022-12-18T06:45:42;95736.13;;;-3.82;82.21
9855;BME280;4966;48.112;9.282;2022-12-18T06:48:07;95740.69;;;-3.89;82.57
9855;BME280;4966;48.112;9.282;2022-12-18T06:50:33;95750.44;;;-4.45;85.31
9855;BME280;4966;48.112;9.282;2022-12-18T06:52:59;95753.06;;;-4.70;85.57
9855;BME280;4966;48.112;9.282;2022-12-18T06:55:24;95750.47;;;-4.27;85.08
9855;BME280;4966;48.112;9.282;2022-12-18T06:57:50;95758.69;;;-4.10;84.14
9855;BME280;4966;48.112;9.282;2022-12-18T07:00:16;95759.38;;;-3.96;83.50
9855;BME280;4966;48.112;9.282;2022-12-18T07:02:41;95753.13;;;-3.83;83.07
9855;BME280;4966;48.112;9.282;2022-12-18T07:05:07;95756.34;;;-3.81;82.40
9855;BME280;4966;48.112;9.282;2022-12-18T07:07:34;95749.03;;;-3.67;81.92
9855;BME280;4966;48.112;9.282;2022-12-18T07:09:59;95751.50;;;-3.66;81.71
9855;BME280;4966;48.112;9.282;2022-12-18T07:12:26;95754.75;;;-3.64;81.79
9855;BME280;4966;48.112;9.282;2022-12-18T07:14:52;95764.84;;;-3.72;82.10
9855;BME280;4966;48.112;9.282;2022-12-18T07:17:17;95760.50;;;-3.85;81.96
9855;BME280;4966;48.112;9.282;2022-12-18T07:19:43;95764.31;;;-3.81;81.70
9855;BME280;4966;48.112;9.282;2022-12-18T07:22:08;95763.50;;;-3.81;82.25
9855;BME280;4966;48.112;9.282;2022-12-18T07:24:33;95770.38;;;-3.92;82.46
9855;BME280;4966;48.112;9.282;2022-12-18T07:26:59;95773.50;;;-3.77;81.77
9855;BME280;4966;48.112;9.282;2022-12-18T07:29:25;95782.38;;;-3.83;82.01
9855;BME280;4966;48.112;9.282;2022-12-18T07:31:50;95780.63;;;-3.96;83.04
9855;BME280;4966;48.112;9.282;2022-12-18T07:34:17;95789.50;;;-4.27;83.21
9855;BME280;4966;48.112;9.282;2022-12-18T07:36:42;95789.41;;;-4.14;83.91
9855;BME280;4966;48.112;9.282;2022-12-18T07:39:08;95783.09;;;-4.19;84.15
9855;BME280;4966;48.112;9.282;2022-12-18T07:41:33;95782.84;;;-4.11;84.54
9855;BME280;4966;48.112;9.282;2022-12-18T07:43:59;95774.09;;;-3.75;82.89
9855;BME280;4966;48.112;9.282;2022-12-18T07:46:24;95798.31;;;-3.83;82.58
9855;BME280;4966;48.112;9.282;2022-12-18T07:48:49;95787.97;;;-3.73;82.53
9855;BME280;4966;48.112;9.282;2022-12-18T07:51:15;95791.72;;;-3.62;81.91
9855;BME280;4966;48.112;9.282;2022-12-18T07:53:41;95778.59;;;-3.57;81.49
9855;BME280;4966;48.112;9.282;2022-12-18T07:56:09;95785.69;;;-3.32;80.95
9855;BME280;4966;48.112;9.282;2022-12-18T07:58:35;95781.25;;;-3.38;81.07
9855;BME280;4966;48.112;9.282;2022-12-18T08:03:30;95775.84;;;-3.50;80.93
9855;BME280;4966;48.112;9.282;2022-12-18T08:06:07;95776.38;;;-3.42;80.19
9855;BME280;4966;48.112;9.282;2022-12-18T08:08:33;95782.97;;;-3.44;80.29
9855;BME280;4966;48.112;9.282;2022-12-18T08:10:59;95784.63;;;-3.31;79.99
9855;BME280;4966;48.112;9.282;2022-12-18T08:13:25;95787.38;;;-3.38;79.75
9855;BME280;4966;48.112;9.282;2022-12-18T08:16:05;95793.06;;;-3.53;80.24
9855;BME280;4966;48.112;9.282;2022-12-18T08:18:33;95796.69;;;-3.66;79.82
9855;BME280;4966;48.112;9.282;2022-12-18T08:21:11;95798.47;;;-3.41;79.38
9855;BME280;4966;48.112;9.282;2022-12-18T08:23:37;95808.66;;;-3.38;79.40
9855;BME280;4966;48.112;9.282;2022-12-18T08:26:02;95805.34;;;-3.52;79.04
9855;BME280;4966;48.112;9.282;2022-12-18T08:28:27;95806.31;;;-3.46;80.03
9855;BME280;4966;48.112;9.282;2022-12-18T08:30:53;95813.75;;;-3.55;80.12
9855;BME280;4966;48.112;9.282;2022-12-18T08:33:18;95808.31;;;-3.11;78.98
9855;BME280;4966;48.112;9.282;2022-12-18T08:35:43;95813.81;;;-3.06;78.50
9855;BME280;4966;48.112;9.282;2022-12-18T08:38:09;95813.16;;;-3.20;78.70
9855;BME280;4966;48.112;9.282;2022-12-18T08:40:34;95810.22;;;-3.30;79.11
9855;BME280;4966;48.112;9.282;2022-12-18T08:42:59;95820.25;;;-3.14;78.74
9855;BME280;4966;48.112;9.282;2022-12-18T08:45:43;95820.94;;;-3.37;79.53
9855;BME280;4966;48.112;9.282;2022-12-18T08:48:09;95814.28;;;-3.28;78.22
9855;BME280;4966;48.112;9.282;2022-12-18T08:50:34;95822.41;;;-4.03;81.34
9855;BME280;4966;48.112;9.282;2022-12-18T08:53:00;95817.69;;;-4.01;81.77
9855;BME280;4966;48.112;9.282;2022-12-18T08:55:25;95824.16;;;-3.90;81.47
9855;BME280;4966;48.112;9.282;2022-12-18T08:57:51;95834.38;;;-3.50;80.33
9855;BME280;4966;48.112;9.282;2022-12-18T09:00:16;95823.00;;;-3.21;79.37
9855;BME280;4966;48.112;9.282;2022-12-18T09:02:42;95826.81;;;-3.16;78.79
9855;BME280;4966;48.112;9.282;2022-12-18T09:05:07;95811.38;;;-3.26;79.01
9855;BME280;4966;48.112;9.282;2022-12-18T09:07:34;95811.63;;;-3.28;77.99
9855;BME280;4966;48.112;9.282;2022-12-18T09:09:59;95805.44;;;-2.91;77.98
9855;BME280;4966;48.112;9.282;2022-12-18T09:12:25;95800.91;;;-3.39;78.93
9855;BME280;4966;48.112;9.282;2022-12-18T09:14:50;95804.25;;;-2.95;77.59
9855;BME280;4966;48.112;9.282;2022-12-18T09:17:16;95807.28;;;-2.92;77.22
9855;BME280;4966;48.112;9.282;2022-12-18T09:19:41;95800.75;;;-2.78;76.92
9855;BME280;4966;48.112;9.282;2022-12-18T09:22:07;95808.00;;;-2.85;76.43
9855;BME280;4966;48.112;9.282;2022-12-18T09:24:32;95812.06;;;-2.40;74.25
9855;BME280;4966;48.112;9.282;2022-12-18T09:26:57;95815.03;;;-2.60;74.11
9855;BME280;4966;48.112;9.282;2022-12-18T09:29:23;95808.28;;;-2.74;74.25
9855;BME280;4966;48.112;9.282;2022-12-18T09:31:49;95813.69;;;-2.51;74.04
9855;BME280;4966;48.112;9.282;2022-12-18T09:34:15;95797.34;;;-2.43;73.72
9855;BME280;4966;48.112;9.282;2022-12-18T09:36:40;95808.38;;;-3.30;75.07
9855;BME280;4966;48.112;9.282;2022-12-18T09:39:06;95815.31;;;-3.29;77.38
9855;BME280;4966;48.112;9.282;2022-12-18T09:41:54;95797.28;;;-3.27;76.13
9855;BME280;4966;48.112;9.282;2022-12-18T09:44:33;95807.25;;;-3.40;76.51
9855;BME280;4966;48.112;9.282;2022-12-18T09:49:46;95809.78;;;-2.67;74.44
9855;BME280;4966;48.112;9.282;2022-12-18T09:52:23;95800.59;;;-2.83;74.72
9855;BME280;4966;48.112;9.282;2022-12-18T09:55:16;95798.03;;;-2.89;75.39
9855;BME280;4966;48.112;9.282;2022-12-18T09:57:51;95808.22;;;-2.56;74.95
9855;BME280;4966;48.112;9.282;2022-12-18T10:00:21;95803.66;;;-2.67;74.58
9855;BME280;4966;48.112;9.282;2022-12-18T10:02:47;95808.78;;;-2.66;73.25
9855;BME280;4966;48.112;9.282;2022-12-18T10:05:13;95804.50;;;-2.55;73.64
9855;BME280;4966;48.112;9.282;2022-12-18T10:07:52;95801.38;;;-2.52;72.94
9855;BME280;4966;48.112;9.282;2022-12-18T10:10:23;95801.50;;;-2.47;73.28
9855;BME280;4966;48.112;9.282;2022-12-18T10:15:40;95812.53;;;-2.73;74.00
9855;BME280;4966;48.112;9.282;2022-12-18T10:20:54;95818.63;;;-3.15;74.89
9855;BME280;4966;48.112;9.282;2022-12-18T10:23:33;95817.88;;;-2.31;73.40
9855;BME280;4966;48.112;9.282;2022-12-18T10:26:04;95828.00;;;-2.10;71.48
9855;BME280;4966;48.112;9.282;2022-12-18T10:28:33;95818.47;;;-2.71;73.84
9855;BME280;4966;48.112;9.282;2022-12-18T10:30:58;95822.06;;;-2.24;72.16
9855;BME280;4966;48.112;9.282;2022-12-18T10:33:30;95814.16;;;-2.30;72.02
9855;BME280;4966;48.112;9.282;2022-12-18T10:35:57;95813.38;;;-2.31;71.62
9855;BME280;4966;48.112;9.282;2022-12-18T10:38:26;95808.44;;;-2.58;72.92
9855;BME280;4966;48.112;9.282;2022-12-18T10:46:15;95805.63;;;-2.09;71.86
9855;BME280;4966;48.112;9.282;2022-12-18T10:51:35;95806.56;;;-1.56;70.54
9855;BME280;4966;48.112;9.282;2022-12-18T10:54:03;95800.16;;;-1.32;69.80
9855;BME280;4966;48.112;9.282;2022-12-18T10:56:31;95799.50;;;-1.98;70.80
9855;BME280;4966;48.112;9.282;2022-12-18T10:59:06;95795.34;;;-2.05;72.05
9855;BME280;4966;48.112;9.282;2022-12-18T11:04:25;95796.28;;;-2.53;71.27
9855;BME280;4966;48.112;9.282;2022-12-18T11:06:58;95794.25;;;-2.16;71.57
9855;BME280;4966;48.112;9.282;2022-12-18T11:09:34;95806.81;;;-1.93;71.68
9855;BME280;4966;48.112;9.282;2022-12-18T11:12:21;95808.78;;;-1.77;70.26
9855;BME280;4966;48.112;9.282;2022-12-18T11:14:50;95812.84;;;-1.86;70.64
9855;BME280;4966;48.112;9.282;2022-12-18T11:17:25;95807.38;;;-2.03;72.20
9855;BME280;4966;48.112;9.282;2022-12-18T11:19:54;95795.44;;;-2.00;70.17
9855;BME280;4966;48.112;9.282;2022-12-18T11:22:21;95797.19;;;-2.06;70.12
9855;BME280;4966;48.112;9.282;2022-12-18T11:27:22;95793.13;;;-1.97;70.28
9855;BME280;4966;48.112;9.282;2022-12-18T11:29:49;95801.69;;;-1.83;69.46
9855;BME280;4966;48.112;9.282;2022-12-18T11:34:46;95776.03;;;-1.48;68.70
9855;BME280;4966;48.112;9.282;2022-12-18T11:37:15;95769.75;;;-1.02;66.76
9855;BME280;4966;48.112;9.282;2022-12-18T11:39:59;95784.53;;;-1.11;65.77
9855;BME280;4966;48.112;9.282;2022-12-18T11:42:41;95784.00;;;-1.25;66.59
9855;BME280;4966;48.112;9.282;2022-12-18T11:47:56;95774.53;;;-1.68;69.51
9855;BME280;4966;48.112;9.282;2022-12-18T11:50:25;95773.50;;;-1.55;69.68
9855;BME280;4966;48.112;9.282;2022-12-18T11:52:51;95764.13;;;-1.58;68.10
9855;BME280;4966;48.112;9.282;2022-12-18T11:55:30;95759.13;;;-1.66;69.51
9855;BME280;4966;48.112;9.282;2022-12-18T12:19:41;95752.59;;;-1.46;68.20
9855;BME280;4966;48.112;9.282;2022-12-18T12:28:18;95740.38;;;-1.95;70.22
9855;BME280;4966;48.112;9.282;2022-12-18T12:33:40;95728.03;;;-1.20;68.63
9855;BME280;4966;48.112;9.282;2022-12-18T12:39:01;95729.94;;;-1.32;68.71
9855;BME280;4966;48.112;9.282;2022-12-18T12:41:32;95719.97;;;-1.77;69.62
9855;BME280;4966;48.112;9.282;2022-12-18T12:44:25;95715.19;;;-1.35;69.09
9855;BME280;4966;48.112;9.282;2022-12-18T12:46:55;95708.75;;;-1.51;69.77
9855;BME280;4966;48.112;9.282;2022-12-18T12:49:26;95718.72;;;-2.22;71.10
9855;BME280;4966;48.112;9.282;2022-12-18T12:52:00;95718.59;;;-2.39;72.31
9855;BME280;4966;48.112;9.282;2022-12-18T12:54:31;95721.00;;;-2.02;71.83
9855;BME280;4966;48.112;9.282;2022-12-18T12:57:12;95718.91;;;-2.35;72.59
9855;BME280;4966;48.112;9.282;2022-12-18T13:08:30;95733.16;;;-1.82;70.43
9855;BME280;4966;48.112;9.282;2022-12-18T13:10:58;95734.19;;;-1.60;70.52
9855;BME280;4966;48.112;9.282;2022-12-18T13:13:53;95740.50;;;-2.13;72.95
9855;BME280;4966;48.112;9.282;2022-12-18T13:16:23;95733.06;;;-1.87;71.49
9855;BME280;4966;48.112;9.282;2022-12-18T13:18:51;95735.00;;;-1.71;71.94
9855;BME280;4966;48.112;9.282;2022-12-18T13:21:27;95742.50;;;-1.44;71.33
9855;BME280;4966;48.112;9.282;2022-12-18T13:23:54;95736.66;;;-1.30;70.51
9855;BME280;4966;48.112;9.282;2022-12-18T13:28:53;95726.78;;;-1.69;71.72
9855;BME280;4966;48.112;9.282;2022-12-18T13:34:23;95731.44;;;-2.12;73.22
9855;BME280;4966;48.112;9.282;2022-12-18T13:36:49;95725.41;;;-1.72;72.01
9855;BME280;4966;48.112;9.282;2022-12-18T13:41:44;95723.28;;;-1.30;70.51
9855;BME280;4966;48.112;9.282;2022-12-18T13:46:50;95722.16;;;-1.74;72.41
9855;BME280;4966;48.112;9.282;2022-12-18T13:49:35;95717.16;;;-1.71;71.76
9855;BME280;4966;48.112;9.282;2022-12-18T13:52:03;95711.56;;;-1.57;70.79
9855;BME280;4966;48.112;9.282;2022-12-18T13:54:40;95712.25;;;-1.62;71.42
9855;BME280;4966;48.112;9.282;2022-12-18T13:57:35;95714.44;;;-1.18;70.15
9855;BME280;4966;48.112;9.282;2022-12-18T14:02:45;95711.91;;;-1.25;69.24
9855;BME280;4966;48.112;9.282;2022-12-18T14:05:34;95721.84;;;-2.13;72.56
9855;BME280;4966;48.112;9.282;2022-12-18T14:08:12;95713.53;;;-1.64;71.19
9855;BME280;4966;48.112;9.282;2022-12-18T14:10:43;95712.03;;;-1.60;71.42
9855;BME280;4966;48.112;9.282;2022-12-18T14:13:11;95720.66;;;-1.94;72.14
9855;BME280;4966;48.112;9.282;2022-12-18T14:15:42;95717.91;;;-1.99;73.27
9855;BME280;4966;48.112;9.282;2022-12-18T14:18:54;95719.72;;;-1.87;73.42
9855;BME280;4966;48.112;9.282;2022-12-18T14:21:28;95730.28;;;-2.16;74.63
9855;BME280;4966;48.112;9.282;2022-12-18T14:24:18;95730.41;;;-2.46;76.22
9855;BME280;4966;48.112;9.282;2022-12-18T14:26:44;95737.94;;;-2.31;76.22
9855;BME280;4966;48.112;9.282;2022-12-18T14:29:36;95733.06;;;-2.11;74.96
9855;BME280;4966;48.112;9.282;2022-12-18T14:32:13;95727.75;;;-2.34;75.94
9855;BME280;4966;48.112;9.282;2022-12-18T14:34:42;95736.44;;;-2.27;76.05
9855;BME280;4966;48.112;9.282;2022-12-18T14:37:11;95744.53;;;-2.46;76.20
9855;BME280;4966;48.112;9.282;2022-12-18T14:39:37;95751.72;;;-2.34;76.67
9855;BME280;4966;48.112;9.282;2022-12-18T14:42:03;95744.16;;;-2.49;77.00
9855;BME280;4966;48.112;9.282;2022-12-18T14:44:28;95744.44;;;-2.27;76.12
9855;BME280;4966;48.112;9.282;2022-12-18T14:46:54;95739.09;;;-2.16;75.71
9855;BME280;4966;48.112;9.282;2022-12-18T14:49:26;95746.22;;;-2.51;77.05
9855;BME280;4966;48.112;9.282;2022-12-18T14:51:57;95742.78;;;-2.52;77.94
9855;BME280;4966;48.112;9.282;2022-12-18T14:54:24;95736.59;;;-2.76;78.25
9855;BME280;4966;48.112;9.282;2022-12-18T14:57:04;95745.06;;;-2.67;78.66
9855;BME280;4966;48.112;9.282;2022-12-18T14:59:31;95739.31;;;-2.29;77.65
9855;BME280;4966;48.112;9.282;2022-12-18T15:04:41;95748.38;;;-2.42;78.20
9855;BME280;4966;48.112;9.282;2022-12-18T15:07:19;95748.13;;;-2.28;78.11
9855;BME280;4966;48.112;9.282;2022-12-18T15:12:36;95748.50;;;-2.25;76.80
9855;BME280;4966;48.112;9.282;2022-12-18T15:15:03;95755.63;;;-2.37;77.58
9855;BME280;4966;48.112;9.282;2022-12-18T15:17:29;95754.38;;;-2.46;77.84
9855;BME280;4966;48.112;9.282;2022-12-18T15:20:00;95760.84;;;-2.54;78.26
9855;BME280;4966;48.112;9.282;2022-12-18T15:22:34;95765.59;;;-2.56;78.76